createdAt,value
2023-03-17T00:01:12.398Z,3.85
2023-03-17T00:03:41.381Z,4.43
2023-03-17T00:06:15.576Z,4.18
2023-03-17T00:08:42.957Z,4.50
2023-03-17T00:11:14.887Z,4.55
2023-03-17T00:13:42.219Z,3.80
2023-03-17T00:16:21.608Z,4.03
2023-03-17T00:18:49.561Z,9.13
2023-03-17T00:21:21.560Z,3.13
2023-03-17T00:23:50.922Z,4.55
2023-03-17T00:26:18.462Z,3.60
2023-03-17T00:28:44.891Z,4.68
2023-03-17T00:31:17.231Z,3.53
2023-03-17T00:33:45.478Z,8.10
2023-03-17T00:36:21.075Z,5.40
2023-03-17T00:38:47.526Z,7.72
2023-03-17T00:41:13.932Z,5.82
2023-03-17T00:43:41.279Z,7.18
2023-03-17T00:46:17.326Z,3.87
2023-03-17T00:48:45.795Z,5.03
2023-03-17T00:51:12.784Z,4.35
2023-03-17T00:53:40.159Z,5.50
2023-03-17T00:56:14.109Z,4.45
2023-03-17T00:58:40.563Z,4.07
2023-03-17T01:01:06.999Z,5.00
2023-03-17T01:03:33.339Z,10.85
2023-03-17T01:06:01.473Z,4.47
2023-03-17T01:08:29.000Z,6.00
2023-03-17T01:10:56.188Z,4.23
2023-03-17T01:13:23.129Z,5.07
2023-03-17T01:15:50.765Z,4.45
2023-03-17T01:18:20.250Z,4.07
2023-03-17T01:20:47.903Z,5.68
2023-03-17T01:23:14.251Z,9.40
2023-03-17T01:25:41.766Z,3.55
2023-03-17T01:28:12.983Z,3.75
2023-03-17T01:30:40.302Z,6.90
2023-03-17T01:33:10.866Z,4.88
2023-03-17T01:35:37.888Z,3.83
2023-03-17T01:38:06.173Z,3.67
2023-03-17T01:40:36.145Z,6.32
2023-03-17T01:43:17.163Z,4.95
2023-03-17T01:46:11.306Z,4.80
2023-03-17T01:48:41.791Z,5.70
2023-03-17T01:51:13.550Z,5.88
2023-03-17T01:53:40.043Z,4.85
2023-03-17T01:56:07.414Z,4.22
2023-03-17T01:58:33.804Z,3.65
2023-03-17T02:01:00.204Z,4.23
2023-03-17T02:03:27.126Z,4.45
2023-03-17T02:05:54.256Z,3.83
2023-03-17T02:08:20.561Z,4.72
2023-03-17T02:10:49.120Z,6.82
2023-03-17T02:13:16.463Z,4.50
2023-03-17T02:15:45.836Z,4.35
2023-03-17T02:18:12.786Z,5.82
2023-03-17T02:20:39.068Z,4.60
2023-03-17T02:23:07.294Z,4.38
2023-03-17T02:25:36.049Z,4.40
2023-03-17T02:28:10.974Z,5.03
2023-03-17T02:30:37.244Z,5.18
2023-03-17T02:33:03.634Z,4.60
2023-03-17T02:35:30.203Z,3.10
2023-03-17T02:37:56.820Z,5.40
2023-03-17T02:40:23.691Z,4.70
2023-03-17T02:42:50.547Z,5.63
2023-03-17T02:45:17.367Z,4.25
2023-03-17T02:47:43.648Z,3.85
2023-03-17T02:50:17.537Z,3.63
2023-03-17T02:52:43.799Z,7.00
2023-03-17T02:55:10.173Z,4.32
2023-03-17T02:57:36.568Z,4.38
2023-03-17T03:00:03.947Z,6.05
2023-03-17T03:02:30.272Z,3.77
2023-03-17T03:04:56.544Z,3.17
2023-03-17T03:07:22.957Z,3.45
2023-03-17T03:09:49.252Z,2.83
2023-03-17T03:12:15.587Z,3.63
2023-03-17T03:14:42.411Z,2.77
2023-03-17T03:17:08.719Z,4.50
2023-03-17T03:19:35.538Z,3.83
2023-03-17T03:22:01.872Z,3.53
2023-03-17T03:24:28.191Z,4.00
2023-03-17T03:26:54.539Z,4.90
2023-03-17T03:29:20.911Z,4.20
2023-03-17T03:31:47.239Z,3.15
2023-03-17T03:34:13.527Z,4.70
2023-03-17T03:36:39.949Z,5.50
2023-03-17T03:39:06.292Z,5.57
2023-03-17T03:41:32.588Z,5.00
2023-03-17T03:43:58.855Z,4.03
2023-03-17T03:46:25.239Z,4.40
2023-03-17T03:48:51.543Z,3.90
2023-03-17T03:51:17.892Z,4.13
2023-03-17T03:53:44.494Z,4.97
2023-03-17T03:56:10.785Z,3.15
2023-03-17T03:58:37.116Z,4.65
2023-03-17T04:01:06.242Z,4.38
2023-03-17T04:03:32.848Z,3.07
2023-03-17T04:05:59.571Z,3.25
2023-03-17T04:08:25.867Z,6.45
2023-03-17T04:10:52.233Z,4.80
2023-03-17T04:13:18.576Z,5.10
2023-03-17T04:15:44.914Z,5.60
2023-03-17T04:18:11.184Z,4.38
2023-03-17T04:20:37.463Z,3.45
2023-03-17T04:23:03.843Z,3.58
2023-03-17T04:25:30.175Z,5.93
2023-03-17T04:27:56.447Z,2.90
2023-03-17T04:30:22.726Z,3.75
2023-03-17T04:32:49.076Z,3.53
2023-03-17T04:35:18.841Z,4.68
2023-03-17T04:37:45.718Z,3.97
2023-03-17T04:40:13.480Z,4.67
2023-03-17T04:42:40.989Z,4.00
2023-03-17T04:45:09.946Z,3.55
2023-03-17T04:47:36.703Z,5.75
2023-03-17T04:50:04.236Z,4.45
2023-03-17T04:52:30.896Z,4.00
2023-03-17T04:54:57.319Z,5.18
2023-03-17T04:57:23.592Z,5.65
2023-03-17T04:59:50.189Z,4.45
2023-03-17T05:02:16.718Z,4.93
2023-03-17T05:04:43.284Z,5.20
2023-03-17T05:07:09.721Z,5.63
2023-03-17T05:09:38.802Z,5.30
2023-03-17T05:12:05.807Z,5.03
2023-03-17T05:14:32.371Z,3.53
2023-03-17T05:16:58.763Z,3.67
2023-03-17T05:19:25.141Z,4.22
2023-03-17T05:21:51.549Z,5.97
2023-03-17T05:24:17.894Z,6.47
2023-03-17T05:26:44.475Z,6.70
2023-03-17T05:29:10.884Z,4.67
2023-03-17T05:31:37.299Z,4.80
2023-03-17T05:34:04.274Z,3.95
2023-03-17T05:36:30.790Z,4.90
2023-03-17T05:38:57.206Z,4.28
2023-03-17T05:41:23.622Z,4.40
2023-03-17T05:43:49.994Z,5.28
2023-03-17T05:46:17.994Z,5.65
2023-03-17T05:48:45.548Z,8.68
2023-03-17T05:51:11.828Z,4.65
2023-03-17T05:53:38.193Z,4.70
2023-03-17T05:56:04.748Z,5.35
2023-03-17T05:58:31.122Z,4.82
2023-03-17T06:00:58.159Z,5.43
2023-03-17T06:03:24.760Z,4.60
2023-03-17T06:05:51.160Z,5.23
2023-03-17T06:08:17.651Z,4.72
2023-03-17T06:10:44.047Z,6.57
2023-03-17T06:13:10.717Z,6.10
2023-03-17T06:15:37.123Z,4.60
2023-03-17T06:18:04.571Z,3.10
2023-03-17T06:20:32.187Z,3.38
2023-03-17T06:23:04.385Z,4.90
2023-03-17T06:25:33.410Z,5.28
2023-03-17T06:28:00.306Z,6.43
2023-03-17T06:30:26.730Z,4.77
2023-03-17T06:32:53.207Z,4.22
2023-03-17T06:35:19.722Z,4.05
2023-03-17T06:37:46.165Z,4.90
2023-03-17T06:40:13.160Z,3.65
2023-03-17T06:42:39.598Z,3.87
2023-03-17T06:45:06.538Z,5.57
2023-03-17T06:47:32.940Z,6.80
2023-03-17T06:49:59.281Z,3.83
2023-03-17T06:52:25.578Z,6.93
2023-03-17T06:54:51.959Z,5.37
2023-03-17T06:57:18.421Z,5.82
2023-03-17T06:59:44.706Z,4.43
2023-03-17T07:02:11.968Z,5.13
2023-03-17T07:04:38.472Z,6.13
2023-03-17T07:07:05.328Z,3.97
2023-03-17T07:09:33.269Z,5.88
2023-03-17T07:12:00.790Z,5.45
2023-03-17T07:14:27.232Z,4.95
2023-03-17T07:16:53.620Z,6.45
2023-03-17T07:19:20.034Z,5.63
2023-03-17T07:21:47.154Z,5.13
2023-03-17T07:24:13.607Z,4.25
2023-03-17T07:26:40.073Z,4.97
2023-03-17T07:29:07.396Z,6.10
2023-03-17T07:31:33.884Z,5.17
2023-03-17T07:34:00.276Z,4.00
2023-03-17T07:36:26.717Z,4.30
2023-03-17T07:38:53.093Z,8.35
2023-03-17T07:41:19.540Z,5.18
2023-03-17T07:43:45.928Z,5.67
2023-03-17T07:46:12.460Z,4.68
2023-03-17T07:48:39.646Z,5.85
2023-03-17T07:51:05.990Z,4.28
2023-03-17T07:53:32.395Z,7.10
2023-03-17T07:55:58.828Z,5.10
2023-03-17T07:58:25.281Z,7.85
2023-03-17T08:00:52.741Z,5.60
2023-03-17T08:03:19.301Z,4.50
2023-03-17T08:05:45.838Z,5.50
2023-03-17T08:08:12.178Z,3.77
2023-03-17T08:10:38.552Z,4.80
2023-03-17T08:13:04.978Z,4.80
2023-03-17T08:15:31.628Z,4.47
2023-03-17T08:17:58.632Z,5.60
2023-03-17T08:20:25.045Z,5.27
2023-03-17T08:22:51.488Z,7.93
2023-03-17T08:25:17.946Z,4.45
2023-03-17T08:27:44.413Z,8.25
2023-03-17T08:30:11.626Z,5.28
2023-03-17T08:32:38.251Z,9.37
2023-03-17T08:35:04.984Z,6.82
2023-03-17T08:37:31.934Z,5.88
2023-03-17T08:39:58.237Z,7.00
2023-03-17T08:42:24.785Z,8.20
2023-03-17T08:44:51.189Z,7.13
2023-03-17T08:47:17.572Z,5.15
2023-03-17T08:49:44.021Z,6.18
2023-03-17T08:52:10.498Z,5.85
2023-03-17T08:54:37.043Z,8.07
2023-03-17T08:57:03.467Z,10.43
2023-03-17T08:59:29.952Z,8.05
2023-03-17T09:01:56.839Z,5.50
2023-03-17T09:04:23.242Z,5.50
2023-03-17T09:07:02.422Z,7.35
2023-03-17T09:09:30.078Z,5.70
2023-03-17T09:11:56.471Z,11.80
2023-03-17T09:14:22.949Z,6.07
2023-03-17T09:16:49.523Z,5.70
2023-03-17T09:19:16.028Z,6.18
2023-03-17T09:21:42.559Z,6.57
2023-03-17T09:24:09.297Z,6.38
2023-03-17T09:26:36.448Z,7.55
2023-03-17T09:29:04.658Z,4.65
2023-03-17T09:31:32.631Z,5.97
2023-03-17T09:33:59.143Z,8.23
2023-03-17T09:36:25.628Z,5.65
2023-03-17T09:38:52.037Z,7.38
2023-03-17T09:41:21.337Z,8.57
2023-03-17T09:44:05.762Z,8.77
2023-03-17T09:46:48.371Z,7.97
2023-03-17T09:49:18.166Z,9.10
2023-03-17T09:51:45.397Z,6.38
2023-03-17T09:54:18.706Z,7.68
2023-03-17T09:56:48.826Z,5.55
2023-03-17T09:59:35.452Z,5.83
2023-03-17T10:02:03.062Z,6.50
2023-03-17T10:04:29.674Z,6.38
2023-03-17T10:07:02.079Z,6.25
2023-03-17T10:09:45.321Z,6.93
2023-03-17T10:12:37.870Z,8.27
2023-03-17T10:15:21.311Z,6.68
2023-03-17T10:17:47.956Z,6.70
2023-03-17T10:20:21.343Z,5.88
2023-03-17T10:23:00.815Z,10.70
2023-03-17T10:25:36.537Z,7.27
2023-03-17T10:28:29.587Z,6.18
2023-03-17T10:31:06.456Z,8.85
2023-03-17T10:33:32.874Z,8.65
2023-03-17T10:36:07.366Z,8.68
2023-03-17T10:38:33.731Z,10.53
2023-03-17T10:41:06.180Z,8.35
2023-03-17T10:43:48.648Z,6.85
2023-03-17T10:46:21.563Z,9.85
2023-03-17T10:49:02.163Z,8.50
2023-03-17T10:51:34.399Z,7.77
2023-03-17T10:54:02.757Z,8.25
2023-03-17T10:56:34.895Z,7.57
2023-03-17T10:59:08.745Z,9.65
2023-03-17T11:01:47.042Z,8.43
2023-03-17T11:04:33.869Z,10.10
2023-03-17T11:07:06.848Z,8.85
2023-03-17T11:09:37.703Z,8.18
2023-03-17T11:12:22.602Z,7.85
2023-03-17T11:14:49.376Z,7.72
2023-03-17T11:17:28.257Z,10.87
2023-03-17T11:20:11.945Z,7.63
2023-03-17T11:22:40.702Z,11.60
2023-03-17T11:25:18.337Z,5.70
2023-03-17T11:27:53.103Z,9.70
2023-03-17T11:30:56.472Z,9.90
2023-03-17T11:33:35.123Z,8.23
2023-03-17T11:36:51.977Z,6.85
2023-03-17T11:39:51.957Z,9.52
2023-03-17T11:42:26.461Z,5.63
2023-03-17T11:45:15.491Z,7.33
2023-03-17T11:47:47.920Z,11.07
2023-03-17T11:50:39.238Z,10.10
2023-03-17T11:53:05.565Z,9.30
2023-03-17T11:55:57.245Z,10.68
2023-03-17T11:58:34.299Z,11.53
2023-03-17T12:01:02.719Z,10.07
2023-03-17T12:03:36.443Z,9.75
2023-03-17T12:06:09.776Z,10.23
2023-03-17T12:08:45.331Z,14.30
2023-03-17T12:11:16.449Z,10.37
2023-03-17T12:13:48.083Z,10.75
2023-03-17T12:16:19.914Z,8.60
2023-03-17T12:18:59.551Z,12.75
2023-03-17T12:21:55.590Z,10.23
2023-03-17T12:24:37.407Z,9.13
2023-03-17T12:27:11.536Z,8.60
2023-03-17T12:29:49.008Z,10.27
2023-03-17T12:32:21.072Z,11.20
2023-03-17T12:34:58.941Z,11.45
2023-03-17T12:37:29.322Z,7.27
2023-03-17T12:40:19.863Z,9.93
2023-03-17T12:42:52.164Z,10.48
2023-03-17T12:45:52.071Z,10.30
2023-03-17T12:48:51.389Z,9.27
2023-03-17T12:51:39.489Z,13.07
2023-03-17T12:54:18.088Z,9.35
2023-03-17T12:56:46.620Z,8.57
2023-03-17T12:59:20.699Z,10.23
2023-03-17T13:02:15.872Z,10.70
2023-03-17T13:04:57.112Z,15.23
2023-03-17T13:07:51.178Z,9.57
2023-03-17T13:10:41.121Z,9.07
2023-03-17T13:13:11.016Z,10.43
2023-03-17T13:15:38.334Z,8.77
2023-03-17T13:18:13.898Z,11.27
2023-03-17T13:20:51.931Z,11.02
2023-03-17T13:23:20.910Z,12.35
2023-03-17T13:25:52.854Z,14.68
2023-03-17T13:28:39.529Z,12.57
2023-03-17T13:31:14.475Z,9.17
2023-03-17T13:33:45.707Z,12.80
2023-03-17T13:36:43.172Z,8.80
2023-03-17T13:39:25.107Z,10.48
2023-03-17T13:42:25.749Z,8.50
2023-03-17T13:45:07.335Z,13.63
2023-03-17T13:47:35.239Z,10.13
2023-03-17T13:50:23.255Z,9.80
2023-03-17T13:53:04.724Z,10.15
2023-03-17T13:55:36.093Z,8.65
2023-03-17T13:58:10.586Z,8.33
2023-03-17T14:00:40.949Z,11.18
2023-03-17T14:03:13.102Z,10.48
2023-03-17T14:05:40.782Z,14.20
2023-03-17T14:08:27.153Z,11.32
2023-03-17T14:10:55.275Z,10.57
2023-03-17T14:13:26.582Z,12.85
2023-03-17T14:16:12.041Z,16.23
2023-03-17T14:18:42.138Z,7.40
2023-03-17T14:21:23.520Z,9.30
2023-03-17T14:23:58.010Z,11.93
2023-03-17T14:26:27.053Z,10.38
2023-03-17T14:28:53.971Z,10.27
2023-03-17T14:31:26.143Z,14.90
2023-03-17T14:34:01.494Z,16.85
2023-03-17T14:36:32.341Z,11.83
2023-03-17T14:38:58.720Z,11.48
2023-03-17T14:41:27.597Z,9.25
2023-03-17T14:43:58.568Z,9.52
2023-03-17T14:46:26.344Z,10.02
2023-03-17T14:49:04.391Z,10.07
2023-03-17T14:51:41.237Z,11.13
2023-03-17T14:54:21.621Z,7.57
2023-03-17T14:56:52.817Z,7.13
2023-03-17T14:59:29.310Z,19.20
2023-03-17T15:01:58.046Z,8.50
2023-03-17T15:04:34.350Z,7.72
2023-03-17T15:07:05.944Z,10.27
2023-03-17T15:09:41.138Z,9.80
2023-03-17T15:12:18.507Z,9.40
2023-03-17T15:14:46.121Z,8.40
2023-03-17T15:17:20.626Z,8.93
2023-03-17T15:19:49.892Z,8.77
2023-03-17T15:22:24.104Z,8.57
2023-03-17T15:25:18.525Z,9.07
2023-03-17T15:27:46.128Z,7.13
2023-03-17T15:30:13.411Z,9.38
2023-03-17T15:32:39.986Z,10.50
2023-03-17T15:35:12.231Z,11.43
2023-03-17T15:37:38.612Z,10.85
2023-03-17T15:40:06.078Z,10.37
2023-03-17T15:42:35.489Z,9.25
2023-03-17T15:45:03.065Z,10.35
2023-03-17T15:47:32.604Z,7.85
2023-03-17T15:50:23.582Z,9.25
2023-03-17T15:52:51.014Z,10.90
2023-03-17T15:55:23.129Z,12.15
2023-03-17T15:57:56.918Z,11.02
2023-03-17T16:00:25.867Z,9.82
2023-03-17T16:02:54.289Z,8.68
2023-03-17T16:05:26.505Z,8.83
2023-03-17T16:07:52.929Z,9.45
2023-03-17T16:10:24.702Z,9.35
2023-03-17T16:12:51.520Z,10.18
2023-03-17T16:15:24.009Z,10.68
2023-03-17T16:18:03.290Z,9.27
2023-03-17T16:20:40.991Z,10.07
2023-03-17T16:23:20.049Z,8.10
2023-03-17T16:25:49.872Z,10.30
2023-03-17T16:28:26.622Z,8.65
2023-03-17T16:30:55.325Z,7.60
2023-03-17T16:33:21.657Z,8.35
2023-03-17T16:35:48.485Z,11.77
2023-03-17T16:38:17.700Z,9.93
2023-03-17T16:40:47.261Z,9.93
2023-03-17T16:43:35.845Z,9.70
2023-03-17T16:46:03.393Z,9.73
2023-03-17T16:48:30.572Z,12.07
2023-03-17T16:50:57.726Z,11.25
2023-03-17T16:53:24.716Z,12.85
2023-03-17T16:55:53.151Z,9.33
2023-03-17T16:58:23.025Z,10.80
2023-03-17T17:00:52.168Z,10.43
2023-03-17T17:03:18.672Z,10.88
2023-03-17T17:05:45.642Z,11.75
2023-03-17T17:08:12.432Z,10.27
2023-03-17T17:10:39.236Z,10.82
2023-03-17T17:13:07.819Z,15.27
2023-03-17T17:15:35.818Z,9.70
2023-03-17T17:18:05.269Z,13.40
2023-03-17T17:20:34.506Z,11.63
2023-03-17T17:23:02.508Z,13.57
2023-03-17T17:25:29.769Z,10.05
2023-03-17T17:27:57.043Z,8.48
2023-03-17T17:30:25.915Z,12.20
2023-03-17T17:32:52.506Z,11.63
2023-03-17T17:35:19.041Z,11.77
2023-03-17T17:37:45.365Z,11.25
2023-03-17T17:40:15.043Z,7.38
2023-03-17T17:42:42.296Z,9.70
2023-03-17T17:45:09.350Z,15.70
2023-03-17T17:47:36.631Z,12.30
2023-03-17T17:50:04.157Z,10.93
2023-03-17T17:52:30.591Z,8.40
2023-03-17T17:54:57.056Z,11.70
2023-03-17T17:57:24.251Z,19.00
2023-03-17T17:59:50.753Z,24.63
2023-03-17T18:02:17.225Z,24.55
2023-03-17T18:04:43.609Z,20.10
2023-03-17T18:07:13.638Z,19.20
2023-03-17T18:09:42.005Z,17.70
2023-03-17T18:12:08.675Z,16.63
2023-03-17T18:14:34.982Z,11.43
2023-03-17T18:17:02.299Z,13.18
2023-03-17T18:19:28.650Z,15.82
2023-03-17T18:21:55.004Z,15.03
2023-03-17T18:24:21.477Z,15.63
2023-03-17T18:26:47.889Z,10.38
2023-03-17T18:29:14.298Z,13.77
2023-03-17T18:31:42.422Z,9.55
2023-03-17T18:34:12.658Z,9.97
2023-03-17T18:36:39.630Z,12.13
2023-03-17T18:39:07.011Z,15.65
2023-03-17T18:41:34.342Z,12.90
2023-03-17T18:44:00.625Z,10.90
2023-03-17T18:46:26.931Z,10.07
2023-03-17T18:48:54.310Z,11.88
2023-03-17T18:51:20.640Z,13.23
2023-03-17T18:53:47.029Z,12.32
2023-03-17T18:56:14.473Z,14.20
2023-03-17T18:58:42.151Z,16.07
2023-03-17T19:01:08.820Z,12.68
2023-03-17T19:03:41.327Z,17.52
2023-03-17T19:06:13.394Z,14.75
2023-03-17T19:08:41.549Z,15.77
2023-03-17T19:11:10.461Z,18.57
2023-03-17T19:13:37.744Z,12.52
2023-03-17T19:16:05.803Z,13.20
2023-03-17T19:18:32.149Z,14.73
2023-03-17T19:20:58.684Z,14.75
2023-03-17T19:23:25.602Z,13.70
2023-03-17T19:25:52.146Z,15.35
2023-03-17T19:28:18.951Z,13.18
2023-03-17T19:30:46.477Z,17.38
2023-03-17T19:33:14.603Z,16.40
2023-03-17T19:35:42.795Z,20.57
2023-03-17T19:38:09.439Z,20.02
2023-03-17T19:40:38.086Z,15.70
2023-03-17T19:43:05.024Z,19.88
2023-03-17T19:45:32.161Z,15.68
2023-03-17T19:47:59.116Z,15.73
2023-03-17T19:50:25.831Z,16.80
2023-03-17T19:52:52.857Z,16.65
2023-03-17T19:55:21.539Z,14.82
2023-03-17T19:57:48.305Z,14.48
2023-03-17T20:00:15.260Z,21.73
2023-03-17T20:02:41.739Z,15.07
2023-03-17T20:05:09.572Z,18.90
2023-03-17T20:07:36.212Z,14.55
2023-03-17T20:10:04.189Z,15.23
2023-03-17T20:12:31.052Z,14.10
2023-03-17T20:14:57.377Z,16.13
2023-03-17T20:17:23.764Z,16.40
2023-03-17T20:19:50.126Z,16.13
2023-03-17T20:22:17.893Z,21.63
2023-03-17T20:24:44.403Z,18.93
2023-03-17T20:27:10.912Z,18.17
2023-03-17T20:29:37.333Z,19.23
2023-03-17T20:32:03.912Z,16.65
2023-03-17T20:34:30.486Z,18.30
2023-03-17T20:36:56.960Z,20.97
2023-03-17T20:39:23.561Z,14.07
2023-03-17T20:41:50.495Z,18.42
2023-03-17T20:44:18.263Z,13.00
2023-03-17T20:46:45.458Z,14.52
2023-03-17T20:49:12.120Z,13.90
2023-03-17T20:51:38.509Z,16.65
2023-03-17T20:54:05.067Z,16.27
2023-03-17T20:56:32.455Z,21.02
2023-03-17T20:58:58.993Z,13.95
2023-03-17T21:01:25.568Z,15.70
2023-03-17T21:03:51.980Z,12.40
2023-03-17T21:06:18.636Z,17.48
2023-03-17T21:08:45.409Z,15.05
2023-03-17T21:11:16.853Z,17.75
2023-03-17T21:13:43.673Z,13.93
2023-03-17T21:16:16.857Z,16.15
2023-03-17T21:18:43.339Z,14.80
2023-03-17T21:21:09.727Z,11.82
2023-03-17T21:23:36.275Z,11.90
2023-03-17T21:26:02.680Z,13.30
2023-03-17T21:28:29.818Z,12.02
2023-03-17T21:30:56.117Z,12.63
2023-03-17T21:33:22.483Z,16.00
2023-03-17T21:35:49.906Z,13.75
2023-03-17T21:38:16.350Z,16.07
2023-03-17T21:40:42.734Z,11.40
2023-03-17T21:43:09.477Z,12.88
2023-03-17T21:45:36.712Z,12.45
2023-03-17T21:48:03.510Z,13.40
2023-03-17T21:50:30.023Z,9.87
2023-03-17T21:52:56.673Z,17.83
2023-03-17T21:55:23.072Z,13.05
2023-03-17T21:57:49.723Z,12.02
2023-03-17T22:00:16.552Z,13.85
2023-03-17T22:02:43.020Z,13.17
2023-03-17T22:05:10.280Z,12.88
2023-03-17T22:07:37.353Z,11.88
2023-03-17T22:10:04.721Z,16.60
2023-03-17T22:12:31.122Z,13.10
2023-03-17T22:14:57.450Z,12.33
2023-03-17T22:17:24.012Z,15.80
2023-03-17T22:19:50.436Z,15.57
2023-03-17T22:22:16.893Z,12.65
2023-03-17T22:24:43.259Z,11.48
2023-03-17T22:27:09.654Z,12.60
2023-03-17T22:29:36.039Z,11.95
2023-03-17T22:32:02.513Z,13.73
2023-03-17T22:34:29.513Z,13.98
2023-03-17T22:36:55.828Z,12.77
2023-03-17T22:39:22.276Z,15.40
2023-03-17T22:41:48.580Z,14.30
2023-03-17T22:44:14.987Z,12.95
2023-03-17T22:46:41.496Z,14.38
2023-03-17T22:49:08.956Z,12.55
2023-03-17T22:51:36.056Z,15.57
2023-03-17T22:54:02.552Z,14.20
2023-03-17T22:56:29.046Z,15.93
2023-03-17T22:58:55.841Z,12.90
2023-03-17T23:01:23.074Z,13.98
2023-03-17T23:03:49.519Z,16.63
2023-03-17T23:06:16.204Z,16.38
2023-03-17T23:08:43.596Z,15.60
2023-03-17T23:11:12.938Z,14.23
2023-03-17T23:13:39.983Z,14.23
2023-03-17T23:16:06.905Z,11.40
2023-03-17T23:18:34.151Z,13.07
2023-03-17T23:21:02.183Z,14.27
2023-03-17T23:23:28.759Z,15.25
2023-03-17T23:25:55.190Z,15.48
2023-03-17T23:28:21.844Z,13.30
2023-03-17T23:30:48.355Z,13.80
2023-03-17T23:33:15.042Z,29.50
2023-03-17T23:35:41.475Z,19.00
2023-03-17T23:38:07.912Z,11.90
2023-03-17T23:40:36.852Z,16.23
2023-03-17T23:43:03.792Z,13.27
2023-03-17T23:45:30.172Z,15.77
2023-03-17T23:47:56.584Z,13.50
2023-03-17T23:50:25.198Z,15.45
2023-03-17T23:53:04.082Z,14.63
2023-03-17T23:55:36.989Z,14.63
2023-03-17T23:58:13.844Z,16.60
